METAR Data
IDs: Format: Raw Decoded Include TAF

Data at: 0826 UTC 20 Sep 2018

PATA 200752Z AUTO 11006KT 8SM -RA OVC037 08/07 A3012 RMK AO2 SLP202 P0003 T00780072 TSNO
PATA 200723Z AUTO 11006KT 9SM -RA FEW006 OVC039 08/07 A3012 RMK AO2 P0001 T00780072 TSNO
PATA 200652Z AUTO 11006KT 10SM -RA OVC037 08/08 A3013 RMK AO2 SLP205 P0003 T00780078 TSNO
PATA 200631Z AUTO 12007KT 7SM -RA SCT022 OVC037 08/08 A3013 RMK AO2 P0003 T00780078 TSNO
PATA 200552Z AUTO 11006KT 6SM -RA BR FEW007 BKN025 OVC038 08/07 A3013 RMK AO2 RAB0453 SLP207 P0001 60003 T00780072 10094 20078 56005 TSNO
PATA 200528Z 11005KT 9SM -RA FEW008 OVC027 08/07 A3013 RMK AO2 RAB0453 P0000 T00830072
PATA 200452Z 10005KT 10SM SCT035 BKN047 OVC055 08/07 A3014 RMK AO2 RAB36E45 SLP208 P0000 T00830072
PATA 200419Z 11006KT 10SM FEW022 SCT027 OVC035 08/07 A3014 RMK AO2 T00830072
PATA 200352Z 10006KT 10SM OVC024 08/07 A3014 RMK AO2 SLP210 12008KTS T00830072
PATA 200342Z 10005KT 10SM BKN024 BKN031 OVC040 08/07 A3014 RMK AO2 T00830072
PATA 200252Z 10006KT 10SM BKN033 OVC048 08/07 A3015 RMK AO2 RAE13 SLP212 P0000 60002 T00830072 56008
PATA 200152Z 11005KT 10SM -RA BKN038 OVC049 09/07 A3016 RMK AO2 SLP214 P0000 T00890072
PATA 200052Z 14007KT 10SM -RA FEW017 BKN035 OVC060 09/08 A3016 RMK AO2 RAB05 SLP217 P0002 T00890083
PATA 200015Z 12003KT 7SM -RA FEW018 BKN028 OVC038 09/07 A3017 RMK AO2 RAB05 P0001 T00890072
PATA 192352Z 12004KT 10SM FEW013 BKN030 OVC065 09/07 A3017 RMK AO2 SLP221 60015 T00890067 10100 20083 58006
PATA 192252Z 00000KT 10SM SCT044 OVC060 09/07 A3018 RMK AO2 RAE46 SLP223 P0000 T00940072
PATA 192152Z 25003KT 10SM -RA SCT043 OVC060 09/07 A3019 RMK AO2 SLP225 P0001 T00890072
PATA 192130Z 00000KT 8SM -RA FEW015 BKN040 OVC060 09/08 A3019 RMK AO2 P0001 T00890078
PATA 192052Z 22005KT 10SM -RA SCT016 SCT020 OVC026 08/07 A3019 RMK AO2 RAB1955 SLP226 P0014 60014 T00830072 58002
PATA 191952Z 00000KT 10SM FEW008 BKN020 OVC110 09/07 A3019 RMK AO2 SLP226 T00940072
PATA 191852Z 14004KT 10SM FEW006 BKN019 OVC120 09/08 A3020 RMK AO2 SLP229 T00890078
PATA 191752Z 14003KT 10SM BKN019 OVC100 08/08 A3020 RMK AO2 SLP228 60002 T00830078 10083 20072 51003
PATA 191659Z 14004KT 10SM BKN016 OVC024 08/08 A3020 RMK AO2 T00780078
PATA 191652Z 14004KT 6SM BR FEW006 BKN013 OVC046 08/08 A3020 RMK AO2 SLP229 T00780078
PATA 191552Z 00000KT 8SM FEW006 BKN013 OVC046 08/07 A3019 RMK AO2 RAE18 SLP226 P0001 T00780072
PATA 191534Z 00000KT 10SM SCT009 BKN013 OVC046 08/07 A3019 RMK AO2 RAE18 P0001 T00780072
PATA 191452Z 14004KT 9SM -RA OVC009 08/08 A3019 RMK AO2 RAE1356B30 SLP225 P0000 60001 T00830078 57001
PATA 191352Z 00000KT 7SM -RA BKN012 BKN025 OVC034 08/08 A3019 RMK AO2 SLP225 P0001 T00830078
PATA 191252Z AUTO 13005KT 10SM -RA SCT002 BKN022 OVC041 08/08 A3019 RMK AO2 RAB04E15B45 SLP227 P0000 T00830083 TSNO
PATA 191247Z AUTO 12005KT 9SM -RA SCT002 BKN022 OVC041 08/08 A3019 RMK AO2 RAB04E15B45 P0000 TSNO
PATA 191232Z AUTO 12004KT 9SM BKN002 BKN020 OVC050 08/08 A3019 RMK AO2 RAB04E15 P0000 T00830083 TSNO
PATA 191227Z AUTO 12003KT 9SM SCT002 BKN041 OVC050 08/08 A3019 RMK AO2 RAB04E15 P0000 T00830083 TSNO
PATA 191152Z AUTO 11004KT 9SM BKN002 OVC022 08/08 A3020 RMK AO2 RAE1055 SLP228 P0000 60001 70014 T00830083 10094 20083 56002 TSNO
PATA 191143Z AUTO 12005KT 9SM BKN002 OVC021 08/08 A3020 RMK AO2 RAE1055 P0000 T00830083 TSNO
PATA 191131Z AUTO 12003KT 9SM SCT002 OVC021 09/08 A3020 RMK AO2 RAE1055 P0000 T00890083 TSNO
PATA 191052Z AUTO 11003KT 10SM -RA FEW014 OVC021 09/08 A3020 RMK AO2 RAE11B43 SLP229 P0001 T00890083 TSNO
PATA 191003Z AUTO 12003KT 9SM -RA FEW010 BKN018 OVC038 09/09 A3020 RMK AO2 P0000 T00890089 TSNO
PATA 190952Z AUTO 00000KT 8SM -RA FEW003 BKN010 OVC038 09/09 A3020 RMK AO2 RAB27 SLP228 P0000 T00890089 TSNO
PATA 190950Z AUTO 12003KT 8SM -RA FEW003 BKN010 OVC038 09/09 A3020 RMK AO2 RAB27 P0000 TSNO
PATA 190916Z AUTO 12003KT 10SM FEW009 OVC038 09/09 A3020 RMK AO2 T00890089 TSNO
PATA 190852Z AUTO 11004KT 8SM OVC032 09/09 A3020 RMK AO2 SLP229 T00940089 401170078 58002 TSNO
PATA 190814Z AUTO 11003KT 6SM BR FEW002 SCT010 OVC033 09/09 A3020 RMK AO2 T00940089 TSNO
PATA 190800Z AUTO 00000KT 4SM BR FEW011 OVC033 09/09 A3021 RMK AO2 T00940089 TSNO
PATA 190752Z AUTO 12003KT 5SM BR SCT010 BKN019 OVC031 09/09 A3021 RMK AO2 SLP231 T00940089 TSNO
PATA 190724Z AUTO 00000KT 10SM SCT010 BKN028 OVC035 09/09 A3020 RMK AO2 T00890089 TSNO
PATA 190652Z AUTO 00000KT 5SM BR BKN030 OVC036 09/09 A3021 RMK AO2 SLP231 T00890089 TSNO
PATA 190552Z AUTO 00000KT 7SM SCT010 OVC024 09/09 A3021 RMK AO2 SLP232 60004 T00940089 10117 20089 51003 TSNO
PATA 190541Z AUTO 00000KT 5SM BR BKN011 OVC026 09/09 A3021 RMK AO2 T00940089 TSNO
PATA 190452Z 04003KT 10SM OVC024 09/09 A3021 RMK AO2 RAE19 SLP232 P0000 T00940089
PATA 190416Z 00000KT 7SM -RA BR OVC022 09/09 A3020 RMK AO2 P0000 T00940089
PATA 190406Z 19003KT 2SM -RA BR OVC022 09/09 A3020 RMK AO2 P0000 T00940089
PATA 190352Z 20004KT 1 1/2SM -RA BR OVC020 09/09 A3020 RMK AO2 SLP231 P0004 T00940089
PATA 190339Z 23004KT 1 3/4SM -RA BR SCT006 OVC019 09/09 A3020 RMK AO2 P0002 T00940094
PATA 190328Z 26004KT 2SM -RA BR BKN006 OVC017 10/09 A3020 RMK AO2 P0001 T01000094
PATA 190257Z 12004KT 4SM -RA BR BKN009 OVC019 11/09 A3020 RMK AO2 P0000 T01060094
PATA 190252Z 12004KT 5SM -RA BR SCT011 BKN019 OVC049 10/09 A3020 RMK AO2 RAB44 SLP229 P0000 60000 T01000094 56005
PATA 190152Z 11004KT 10SM BR BKN017 BKN028 OVC060 11/09 A3020 RMK AO2 SLP230 T01110094
PATA 190117Z VRB04KT 10SM BR SCT013 BKN031 OVC060 12/10 A3020 RMK AO2 T01170100
PATA 190052Z 12003KT 10SM BR BKN014 OVC028 11/10 A3020 RMK AO2 SLP231 T01110100
PATA 190041Z 12003KT 10SM BR BKN012 BKN030 OVC042 12/11 A3021 RMK AO2 T01170106
PATA 182352Z 13004KT 8SM BR SCT012 BKN032 OVC043 11/10 A3022 RMK AO2 SLP235 60008 T01060100 10111 20083 50000
PATA 182321Z 12004KT 10SM BR BKN012 OVC017 11/10 A3022 RMK AO2 T01110100
PATA 182252Z 00000KT 10SM BR BKN015 OVC023 11/10 A3022 RMK AO2 RAE38 SLP236 P0001 T01110100
PATA 182217Z 13004KT 5SM -RA BR BKN014 OVC022 10/09 A3022 RMK AO2 P0000 T01000094
PATA 182157Z 00000KT 3SM -RA BR SCT009 OVC015 10/09 A3022 RMK AO2 P0000 T01000094
PATA 182152Z 00000KT 4SM -RA BR BKN009 OVC013 09/09 A3022 RMK AO2 RAE14B45 SLP237 P0001 T00940094
PATA 182141Z 00000KT 8SM BR OVC009 09/09 A3022 RMK AO2 RAE14 P0000 T00940094
PATA 182131Z 13003KT 2 1/2SM BR SCT004 OVC009 09/09 A3022 RMK AO2 RAE14 P0000 T00940094
PATA 182115Z 14003KT 2SM BR BKN004 OVC009 09/09 A3022 RMK AO2 RAE14 P0000 T00940094
PATA 182052Z 00000KT 1 1/2SM -RA BR BKN003 OVC009 09/09 A3022 RMK AO2 RAB41 SLP235 P0001 60006 T00940094 51001
PATA 182038Z 00000KT 1 3/4SM BR BKN004 OVC009 09/09 A3022 RMK AO2 T00940089
PATA 182027Z 00000KT 2SM BR OVC004 09/09 A3022 RMK AO2 T00940089